createdAt,value
2018-05-16T00:01:51.849Z,8.23
2018-05-16T00:04:19.257Z,9.00
2018-05-16T00:06:48.197Z,9.10
2018-05-16T00:09:15.624Z,8.93
2018-05-16T00:11:44.125Z,8.07
2018-05-16T00:14:11.528Z,7.80
2018-05-16T00:16:40.293Z,8.40
2018-05-16T00:19:07.708Z,8.90
2018-05-16T00:21:35.124Z,8.93
2018-05-16T00:24:02.576Z,8.07
2018-05-16T00:26:30.017Z,9.20
2018-05-16T00:28:57.428Z,8.80
2018-05-16T00:31:25.099Z,8.87
2018-05-16T00:33:52.526Z,9.27
2018-05-16T00:36:19.932Z,9.17
2018-05-16T00:38:47.353Z,7.47
2018-05-16T00:41:15.515Z,8.33
2018-05-16T00:43:42.933Z,8.33
2018-05-16T00:46:10.331Z,8.57
2018-05-16T00:48:37.753Z,8.60
2018-05-16T00:51:16.860Z,8.57
2018-05-16T00:53:46.157Z,8.63
2018-05-16T00:56:13.560Z,7.63
2018-05-16T00:58:40.960Z,8.80
2018-05-16T01:01:08.382Z,8.30
2018-05-16T01:03:35.775Z,9.37
2018-05-16T01:06:03.190Z,9.53
2018-05-16T01:08:30.597Z,8.80
2018-05-16T01:10:57.995Z,8.77
2018-05-16T01:13:25.421Z,9.40
2018-05-16T01:15:52.819Z,9.47
2018-05-16T01:18:20.228Z,8.93
2018-05-16T01:20:47.648Z,8.77
2018-05-16T01:23:15.052Z,8.90
2018-05-16T01:25:42.457Z,9.27
2018-05-16T01:28:09.887Z,10.57
2018-05-16T01:30:37.290Z,9.40
2018-05-16T01:33:04.692Z,9.83
2018-05-16T01:35:32.112Z,9.80
2018-05-16T01:37:59.528Z,9.23
2018-05-16T01:40:26.939Z,9.23
2018-05-16T01:42:54.364Z,10.03
2018-05-16T01:45:21.797Z,10.43
2018-05-16T01:47:49.236Z,10.27
2018-05-16T01:50:16.649Z,10.80
2018-05-16T01:52:44.069Z,10.03
2018-05-16T01:55:11.800Z,10.60
2018-05-16T01:57:40.156Z,9.70
2018-05-16T02:00:07.635Z,11.83
2018-05-16T02:02:35.064Z,12.30
2018-05-16T02:05:02.505Z,12.70
2018-05-16T02:07:29.925Z,11.67
2018-05-16T02:09:57.376Z,11.50
2018-05-16T02:12:24.839Z,11.60
2018-05-16T02:14:52.251Z,12.10
2018-05-16T02:17:20.057Z,12.47
2018-05-16T02:19:47.471Z,12.67
2018-05-16T02:22:14.920Z,12.87
2018-05-16T02:24:42.351Z,15.30
2018-05-16T02:27:09.796Z,14.50
2018-05-16T02:29:37.232Z,13.83
2018-05-16T02:32:04.653Z,12.90
2018-05-16T02:34:32.541Z,14.57
2018-05-16T02:36:59.952Z,14.03
2018-05-16T02:39:27.372Z,11.87
2018-05-16T02:41:54.795Z,12.70
2018-05-16T02:44:22.240Z,13.43
2018-05-16T02:46:49.929Z,12.80
2018-05-16T02:49:17.355Z,13.67
2018-05-16T02:51:44.759Z,15.87
2018-05-16T02:54:12.719Z,13.63
2018-05-16T02:56:40.149Z,12.30
2018-05-16T02:59:07.624Z,13.10
2018-05-16T03:01:35.028Z,12.40
2018-05-16T03:04:02.456Z,12.30
2018-05-16T03:06:29.884Z,11.93
2018-05-16T03:08:57.858Z,11.70
2018-05-16T03:11:25.313Z,12.37
2018-05-16T03:13:52.721Z,10.83
2018-05-16T03:16:20.181Z,12.03
2018-05-16T03:18:47.596Z,13.43
2018-05-16T03:21:15.490Z,12.80
2018-05-16T03:23:42.896Z,12.33
2018-05-16T03:26:10.325Z,13.27
2018-05-16T03:28:37.731Z,14.77
2018-05-16T03:31:05.337Z,13.63
2018-05-16T03:33:32.739Z,16.50
2018-05-16T03:36:00.205Z,14.03
2018-05-16T03:38:27.629Z,14.27
2018-05-16T03:40:55.054Z,14.17
2018-05-16T03:43:22.460Z,13.67
2018-05-16T03:45:49.915Z,13.23
2018-05-16T03:48:17.323Z,13.90
2018-05-16T03:50:45.681Z,13.10
2018-05-16T03:53:13.137Z,13.63
2018-05-16T03:55:40.552Z,13.17
2018-05-16T03:58:20.809Z,14.60
2018-05-16T04:04:13.076Z,13.67
2018-05-16T04:06:40.523Z,12.83
2018-05-16T04:09:07.978Z,14.57
2018-05-16T04:11:35.397Z,15.23
2018-05-16T04:14:02.826Z,13.07
2018-05-16T04:16:30.235Z,14.43
2018-05-16T04:18:57.980Z,13.27
2018-05-16T04:21:25.424Z,13.73
2018-05-16T04:23:52.839Z,11.73
2018-05-16T04:26:20.261Z,12.00
2018-05-16T04:28:47.697Z,12.87
2018-05-16T04:31:15.149Z,13.50
2018-05-16T04:33:42.572Z,14.10
2018-05-16T04:36:10.028Z,13.60
2018-05-16T04:38:37.456Z,15.77
2018-05-16T04:41:04.887Z,12.87
2018-05-16T04:43:32.335Z,12.87
2018-05-16T04:45:59.749Z,12.37
2018-05-16T04:48:27.184Z,12.33
2018-05-16T04:50:54.596Z,13.93
2018-05-16T04:53:22.032Z,12.47
2018-05-16T04:55:49.463Z,12.17
2018-05-16T04:58:16.880Z,12.67
2018-05-16T05:00:44.312Z,11.13
2018-05-16T05:03:11.730Z,9.87
2018-05-16T05:05:39.148Z,10.57
2018-05-16T05:08:06.578Z,9.83
2018-05-16T05:10:33.983Z,9.80
2018-05-16T05:13:01.416Z,10.10
2018-05-16T05:15:28.839Z,10.18
2018-05-16T05:17:56.301Z,9.63
2018-05-16T05:20:24.721Z,8.80
2018-05-16T05:22:52.134Z,9.82
2018-05-16T05:25:19.532Z,9.07
2018-05-16T05:27:46.952Z,8.98
2018-05-16T05:30:14.428Z,9.00
2018-05-16T05:32:41.779Z,8.65
2018-05-16T05:35:09.208Z,8.50
2018-05-16T05:37:36.623Z,9.55
2018-05-16T05:40:04.684Z,9.77
2018-05-16T05:42:32.165Z,10.05
2018-05-16T05:44:59.584Z,9.50
2018-05-16T05:47:27.024Z,9.45
2018-05-16T05:49:54.440Z,11.55
2018-05-16T05:52:21.843Z,11.35
2018-05-16T05:54:49.264Z,9.77
2018-05-16T05:57:16.675Z,10.80
2018-05-16T05:59:44.110Z,11.12
2018-05-16T06:02:11.519Z,11.00
2018-05-16T06:04:39.718Z,10.20
2018-05-16T06:07:07.297Z,10.73
2018-05-16T06:09:34.744Z,9.52
2018-05-16T06:12:02.422Z,9.98
2018-05-16T06:14:29.992Z,9.65
2018-05-16T06:16:57.552Z,10.27
2018-05-16T06:19:25.321Z,10.17
2018-05-16T06:21:52.778Z,10.03
2018-05-16T06:24:21.143Z,10.27
2018-05-16T06:26:49.849Z,10.53
2018-05-16T06:29:18.691Z,11.47
2018-05-16T06:31:47.206Z,11.47
2018-05-16T06:34:14.746Z,11.67
2018-05-16T06:36:42.218Z,10.90
2018-05-16T06:39:10.291Z,12.27
2018-05-16T06:41:37.672Z,11.90
2018-05-16T06:44:05.108Z,11.30
2018-05-16T06:46:34.909Z,11.93
2018-05-16T06:49:04.355Z,11.47
2018-05-16T06:51:33.285Z,12.10
2018-05-16T06:54:00.988Z,17.67
2018-05-16T06:56:32.451Z,29.03
2018-05-16T06:58:59.887Z,11.40
2018-05-16T07:01:27.828Z,15.20
2018-05-16T07:03:55.254Z,14.87
2018-05-16T07:06:22.714Z,12.47
2018-05-16T07:08:50.299Z,13.17
2018-05-16T07:11:17.704Z,11.20
2018-05-16T07:13:45.599Z,12.00
2018-05-16T07:16:13.184Z,12.57
2018-05-16T07:18:44.003Z,11.77
2018-05-16T07:21:11.459Z,13.17
2018-05-16T07:23:39.191Z,14.07
2018-05-16T07:26:07.330Z,12.33
2018-05-16T07:28:35.243Z,11.93
2018-05-16T07:31:04.736Z,12.03
2018-05-16T07:33:32.153Z,15.70
2018-05-16T07:36:09.702Z,13.33
2018-05-16T07:38:37.156Z,12.40
2018-05-16T07:41:04.696Z,19.17
2018-05-16T07:43:32.057Z,16.20
2018-05-16T07:45:59.472Z,16.20
2018-05-16T07:48:26.907Z,15.83
2018-05-16T07:50:54.324Z,14.93
2018-05-16T07:53:21.733Z,13.53
2018-05-16T07:55:49.153Z,13.47
2018-05-16T07:58:16.559Z,13.40
2018-05-16T08:00:43.987Z,13.30
2018-05-16T08:03:11.492Z,15.33
2018-05-16T08:05:38.818Z,16.23
2018-05-16T08:08:06.287Z,19.10
2018-05-16T08:10:33.777Z,14.13
2018-05-16T08:13:02.162Z,13.03
2018-05-16T08:15:29.572Z,14.97
2018-05-16T08:17:56.983Z,15.33
2018-05-16T08:20:24.416Z,18.23
2018-05-16T08:22:51.824Z,13.57
2018-05-16T08:25:19.244Z,12.40
2018-05-16T08:27:46.658Z,13.97
2018-05-16T08:30:14.095Z,12.80
2018-05-16T08:32:41.524Z,13.43
2018-05-16T08:35:08.932Z,12.40
2018-05-16T08:37:36.365Z,14.10
2018-05-16T08:40:04.385Z,12.47
2018-05-16T08:42:31.803Z,13.13
2018-05-16T08:44:59.224Z,12.90
2018-05-16T08:47:26.626Z,14.17
2018-05-16T08:49:54.066Z,12.90
2018-05-16T08:52:21.504Z,11.57
2018-05-16T08:54:48.944Z,15.13
2018-05-16T08:57:16.368Z,13.13
2018-05-16T08:59:43.775Z,13.40
2018-05-16T09:02:11.196Z,13.77
2018-05-16T09:04:38.618Z,12.53
2018-05-16T09:07:06.060Z,14.93
2018-05-16T09:09:33.474Z,13.33
2018-05-16T09:12:00.940Z,12.83
2018-05-16T09:14:28.348Z,12.90
2018-05-16T09:16:55.757Z,13.03
2018-05-16T09:19:23.180Z,12.60
2018-05-16T09:21:50.608Z,13.37
2018-05-16T09:24:18.078Z,14.17
2018-05-16T09:26:45.483Z,13.60
2018-05-16T09:29:12.892Z,13.43
2018-05-16T09:31:40.659Z,12.03
2018-05-16T09:34:08.072Z,14.90
2018-05-16T09:36:35.500Z,14.37
2018-05-16T09:39:02.932Z,13.47
2018-05-16T09:41:30.333Z,14.60
2018-05-16T09:43:57.765Z,13.00
2018-05-16T09:46:25.170Z,13.57
2018-05-16T09:48:52.889Z,12.93
2018-05-16T09:51:20.320Z,13.23
2018-05-16T09:53:47.731Z,13.50
2018-05-16T09:56:15.165Z,12.93
2018-05-16T09:58:42.603Z,12.60
2018-05-16T10:01:10.013Z,13.70
2018-05-16T10:03:37.447Z,13.33
2018-05-16T10:06:04.887Z,13.50
2018-05-16T10:08:32.316Z,13.13
2018-05-16T10:10:59.755Z,15.03
2018-05-16T10:13:27.167Z,13.40
2018-05-16T10:15:55.532Z,13.40
2018-05-16T10:18:23.016Z,14.10
2018-05-16T10:20:50.469Z,12.90
2018-05-16T10:23:17.896Z,15.17
2018-05-16T10:25:46.039Z,13.63
2018-05-16T10:28:13.448Z,15.30
2018-05-16T10:30:40.887Z,13.60
2018-05-16T10:33:08.370Z,16.13
2018-05-16T10:35:35.799Z,15.00
2018-05-16T10:38:03.250Z,15.33
2018-05-16T10:40:30.968Z,14.70
2018-05-16T10:42:58.425Z,15.30
2018-05-16T10:45:25.839Z,16.60
2018-05-16T10:47:53.271Z,13.30
2018-05-16T10:50:20.688Z,15.37
2018-05-16T10:52:48.136Z,14.77
2018-05-16T10:55:17.114Z,15.73
2018-05-16T10:57:44.532Z,14.93
2018-05-16T11:00:15.033Z,17.77
2018-05-16T11:02:42.517Z,15.87
2018-05-16T11:05:10.420Z,17.80
2018-05-16T11:07:38.206Z,16.80
2018-05-16T11:10:07.648Z,18.73
2018-05-16T11:12:37.383Z,17.97
2018-05-16T11:15:04.835Z,16.10
2018-05-16T11:17:33.269Z,17.70
2018-05-16T11:20:02.881Z,17.70
2018-05-16T11:22:31.025Z,17.33
2018-05-16T11:24:58.660Z,15.97
2018-05-16T11:27:27.360Z,16.90
2018-05-16T11:29:55.253Z,17.73
2018-05-16T11:32:23.663Z,16.97
2018-05-16T11:34:51.364Z,15.47
2018-05-16T11:37:20.267Z,15.73
2018-05-16T11:39:47.758Z,15.93
2018-05-16T11:42:15.185Z,15.07
2018-05-16T11:44:42.676Z,15.90
2018-05-16T11:47:11.280Z,14.93
2018-05-16T11:49:39.290Z,15.57
2018-05-16T11:52:06.699Z,15.90
2018-05-16T11:54:34.435Z,16.83
2018-05-16T11:57:01.852Z,16.77
2018-05-16T11:59:29.280Z,15.87
2018-05-16T12:01:56.708Z,15.07
2018-05-16T12:04:24.148Z,18.37
2018-05-16T12:06:52.537Z,15.30
2018-05-16T12:09:19.969Z,15.43
2018-05-16T12:11:47.382Z,15.90
2018-05-16T12:14:15.102Z,18.23
2018-05-16T12:16:42.610Z,19.43
2018-05-16T12:19:10.991Z,17.20
2018-05-16T12:21:38.429Z,17.57
2018-05-16T12:24:05.780Z,18.50
2018-05-16T12:26:33.242Z,19.77
2018-05-16T12:29:00.681Z,18.07
2018-05-16T12:31:28.092Z,20.07
2018-05-16T12:33:55.889Z,21.40
2018-05-16T12:36:23.301Z,18.57
2018-05-16T12:38:50.732Z,15.70
2018-05-16T12:41:18.184Z,16.60
2018-05-16T12:43:45.616Z,18.50
2018-05-16T12:46:13.042Z,18.13
2018-05-16T12:48:40.472Z,18.03
2018-05-16T12:51:07.879Z,15.73
2018-05-16T12:53:35.337Z,16.23
2018-05-16T12:56:08.351Z,15.33
2018-05-16T12:58:37.504Z,14.90
2018-05-16T13:01:04.970Z,14.30
2018-05-16T13:03:32.820Z,13.32
2018-05-16T13:06:03.381Z,12.75
2018-05-16T13:08:33.928Z,12.70
2018-05-16T13:11:01.421Z,14.57
2018-05-16T13:13:31.949Z,13.45
2018-05-16T13:16:00.500Z,13.20
2018-05-16T13:18:28.337Z,13.62
2018-05-16T13:20:58.052Z,15.68
2018-05-16T13:23:25.489Z,14.80
2018-05-16T13:25:52.905Z,18.05
2018-05-16T13:28:20.319Z,16.67
2018-05-16T13:30:47.743Z,15.48
2018-05-16T13:33:15.148Z,15.82
2018-05-16T13:35:42.729Z,14.27
2018-05-16T13:38:10.140Z,16.83
2018-05-16T13:40:37.569Z,15.35
2018-05-16T13:43:04.988Z,17.65
2018-05-16T13:45:32.402Z,21.70
2018-05-16T13:47:59.823Z,21.77
2018-05-16T13:50:27.608Z,19.33
2018-05-16T13:52:55.028Z,18.02
2018-05-16T13:55:22.437Z,18.17
2018-05-16T13:57:49.879Z,21.70
2018-05-16T14:00:17.300Z,18.92
2018-05-16T14:02:44.733Z,20.00
2018-05-16T14:05:12.170Z,17.80
2018-05-16T14:07:39.627Z,20.33
2018-05-16T14:10:07.064Z,20.02
2018-05-16T14:12:34.482Z,21.83
2018-05-16T14:15:01.898Z,20.90
2018-05-16T14:17:29.319Z,20.85
2018-05-16T14:19:56.837Z,19.95
2018-05-16T14:22:24.148Z,19.55
2018-05-16T14:24:51.880Z,20.80
2018-05-16T14:27:19.295Z,20.75
2018-05-16T14:29:46.705Z,20.27
2018-05-16T14:32:14.132Z,18.37
2018-05-16T14:34:41.545Z,21.00
2018-05-16T14:37:08.979Z,22.08
2018-05-16T14:39:36.400Z,18.10
2018-05-16T14:42:03.836Z,18.15
2018-05-16T14:44:31.252Z,18.27
2018-05-16T14:46:58.695Z,16.70
2018-05-16T14:49:26.133Z,17.60
2018-05-16T14:51:53.573Z,18.37
2018-05-16T14:54:20.971Z,20.65
2018-05-16T14:56:48.409Z,20.02
2018-05-16T14:59:15.816Z,21.58
2018-05-16T15:01:43.274Z,19.77
2018-05-16T15:04:10.689Z,20.65
2018-05-16T15:06:38.124Z,18.55
2018-05-16T15:09:05.528Z,18.03
2018-05-16T15:11:32.944Z,19.97
2018-05-16T15:14:00.519Z,19.80
2018-05-16T15:16:27.936Z,18.75
2018-05-16T15:18:55.430Z,19.67
2018-05-16T15:21:23.166Z,20.47
2018-05-16T15:23:50.550Z,19.58
2018-05-16T15:26:17.955Z,17.92
2018-05-16T15:28:45.380Z,20.77
2018-05-16T15:31:12.875Z,19.75
2018-05-16T15:33:40.528Z,20.67
2018-05-16T15:36:07.949Z,20.27
2018-05-16T15:38:35.379Z,19.83
2018-05-16T15:41:02.807Z,25.17
2018-05-16T15:43:30.225Z,20.40
2018-05-16T15:45:57.795Z,20.73
2018-05-16T15:48:25.785Z,24.07
2018-05-16T15:50:53.203Z,21.63
2018-05-16T15:53:20.623Z,24.00
2018-05-16T15:55:48.724Z,22.37
2018-05-16T15:58:16.153Z,21.33
2018-05-16T16:00:43.568Z,21.10
2018-05-16T16:03:10.976Z,21.07
2018-05-16T16:05:38.404Z,15.30
2018-05-16T16:08:06.710Z,13.67
2018-05-16T16:10:34.035Z,13.63
2018-05-16T16:13:01.451Z,15.70
2018-05-16T16:15:28.877Z,12.97
2018-05-16T16:17:56.321Z,13.40
2018-05-16T16:20:23.733Z,13.13
2018-05-16T16:22:51.296Z,10.47
2018-05-16T16:25:18.699Z,10.43
2018-05-16T16:27:46.117Z,11.13
2018-05-16T16:30:13.540Z,9.57
2018-05-16T16:32:40.948Z,10.47
2018-05-16T16:35:08.380Z,9.90
2018-05-16T16:37:37.262Z,11.47
2018-05-16T16:40:04.735Z,9.17
2018-05-16T16:42:32.268Z,9.83
2018-05-16T16:44:59.699Z,8.10
2018-05-16T16:47:27.095Z,8.30
2018-05-16T16:49:54.922Z,8.07
2018-05-16T16:52:22.541Z,7.73
2018-05-16T16:54:50.072Z,7.80
2018-05-16T16:57:17.919Z,8.40
2018-05-16T16:59:45.289Z,8.27
2018-05-16T17:02:12.961Z,8.33
2018-05-16T17:04:40.413Z,7.97
2018-05-16T17:07:07.827Z,6.90
2018-05-16T17:09:35.449Z,11.83
2018-05-16T17:12:02.955Z,8.83
2018-05-16T17:14:30.376Z,8.70
2018-05-16T17:16:57.957Z,7.40
2018-05-16T17:19:25.355Z,7.93
2018-05-16T17:21:52.770Z,8.23
2018-05-16T17:24:20.185Z,9.53
2018-05-16T17:26:47.682Z,9.20
2018-05-16T17:29:15.016Z,9.67
2018-05-16T17:31:42.523Z,9.77
2018-05-16T17:34:10.444Z,9.47
2018-05-16T17:36:37.863Z,9.47
2018-05-16T17:39:05.689Z,8.97
2018-05-16T17:41:33.116Z,9.63
2018-05-16T17:44:00.648Z,9.30
2018-05-16T17:46:28.136Z,9.60
2018-05-16T17:48:55.663Z,10.50
2018-05-16T17:51:23.606Z,9.33
2018-05-16T17:53:51.176Z,10.77
2018-05-16T17:56:18.427Z,10.43
2018-05-16T17:58:45.935Z,11.43
2018-05-16T18:01:13.403Z,9.83
2018-05-16T18:03:41.144Z,10.17
2018-05-16T18:06:08.700Z,9.90
2018-05-16T18:08:36.119Z,11.40
2018-05-16T18:11:03.532Z,12.63
2018-05-16T18:16:46.364Z,11.33
2018-05-16T18:19:14.096Z,12.30
2018-05-16T18:21:41.514Z,12.13
2018-05-16T18:24:08.926Z,11.20
2018-05-16T18:26:36.357Z,11.60
2018-05-16T18:29:03.768Z,11.47
2018-05-16T18:31:31.196Z,9.20
2018-05-16T18:33:58.632Z,9.53
2018-05-16T18:36:26.016Z,9.50
2018-05-16T18:38:53.441Z,10.53
2018-05-16T18:41:20.847Z,9.90
2018-05-16T18:43:48.296Z,11.17
2018-05-16T18:46:15.712Z,10.13
2018-05-16T18:48:43.228Z,11.03
2018-05-16T18:51:10.845Z,13.47
2018-05-16T18:53:38.294Z,13.83
2018-05-16T18:56:05.745Z,15.03
2018-05-16T18:58:33.173Z,14.13
2018-05-16T19:01:00.639Z,14.13
2018-05-16T19:03:28.199Z,13.87
2018-05-16T19:05:55.615Z,14.57
2018-05-16T19:08:23.031Z,14.73
2018-05-16T19:10:50.473Z,14.67
2018-05-16T19:13:18.000Z,14.23
2018-05-16T19:15:45.460Z,14.20
2018-05-16T19:18:12.876Z,13.07
2018-05-16T19:20:40.320Z,11.97
2018-05-16T19:23:07.805Z,12.07
2018-05-16T19:25:35.624Z,11.70
2018-05-16T19:28:03.072Z,11.90
2018-05-16T19:30:30.522Z,10.83
2018-05-16T19:32:58.053Z,11.17
2018-05-16T19:35:28.044Z,12.00
2018-05-16T19:37:56.187Z,12.03
2018-05-16T19:40:24.671Z,11.27
2018-05-16T19:42:53.471Z,10.77
2018-05-16T19:45:21.014Z,11.13
2018-05-16T19:47:48.425Z,11.87
2018-05-16T19:50:15.970Z,12.80
2018-05-16T19:52:44.557Z,11.33
2018-05-16T19:55:13.104Z,11.87
2018-05-16T19:57:41.360Z,12.00
2018-05-16T20:00:08.861Z,11.80
2018-05-16T20:02:37.379Z,10.50
2018-05-16T20:05:06.557Z,11.37
2018-05-16T20:07:35.688Z,11.50
2018-05-16T20:10:03.691Z,10.57
2018-05-16T20:12:31.715Z,10.40
2018-05-16T20:14:59.483Z,9.73
2018-05-16T20:17:26.891Z,9.13
2018-05-16T20:19:54.344Z,10.97
2018-05-16T20:22:21.949Z,9.63
2018-05-16T20:24:49.369Z,10.50
2018-05-16T20:27:16.786Z,9.77
2018-05-16T20:29:44.572Z,10.03
2018-05-16T20:32:12.006Z,10.50
2018-05-16T20:34:39.430Z,10.17
2018-05-16T20:37:06.852Z,11.03
2018-05-16T20:39:34.274Z,9.83
2018-05-16T20:42:01.680Z,10.67
2018-05-16T20:44:29.107Z,10.03
2018-05-16T20:46:57.175Z,10.53
2018-05-16T20:49:24.756Z,9.63
2018-05-16T20:51:52.188Z,10.37
2018-05-16T20:54:19.624Z,11.53
2018-05-16T20:56:47.076Z,10.97
2018-05-16T20:59:14.661Z,10.87
2018-05-16T21:01:42.080Z,9.87
2018-05-16T21:04:09.505Z,11.77
2018-05-16T21:06:36.927Z,11.57
2018-05-16T21:09:05.069Z,11.47
2018-05-16T21:11:32.472Z,10.30
2018-05-16T21:13:59.923Z,11.07
2018-05-16T21:16:27.355Z,9.83
2018-05-16T21:18:54.795Z,9.30
2018-05-16T21:21:22.215Z,9.83
2018-05-16T21:23:50.015Z,10.63
2018-05-16T21:26:17.411Z,9.87
2018-05-16T21:28:44.849Z,10.70
2018-05-16T21:31:12.283Z,10.47
2018-05-16T21:33:39.683Z,10.07
2018-05-16T21:36:07.103Z,10.93
2018-05-16T21:38:34.692Z,9.40
2018-05-16T21:41:02.340Z,9.20
2018-05-16T21:43:29.756Z,8.70
2018-05-16T21:45:57.177Z,9.07
2018-05-16T21:48:24.598Z,9.40
2018-05-16T21:50:52.358Z,10.07
2018-05-16T21:53:19.755Z,9.90
2018-05-16T21:55:47.185Z,9.37
2018-05-16T21:58:14.985Z,10.13
2018-05-16T22:00:42.410Z,8.73
2018-05-16T22:03:09.824Z,9.03
2018-05-16T22:05:37.591Z,9.97
2018-05-16T22:08:05.005Z,9.43
2018-05-16T22:10:32.414Z,9.27
2018-05-16T22:12:59.847Z,8.77
2018-05-16T22:15:27.255Z,9.03
2018-05-16T22:17:54.666Z,9.57
2018-05-16T22:20:22.099Z,8.40
2018-05-16T22:22:49.529Z,9.40
2018-05-16T22:25:16.919Z,8.87
2018-05-16T22:27:44.336Z,8.67
2018-05-16T22:30:11.179Z,8.13
2018-05-16T22:32:44.260Z,8.93
2018-05-16T22:35:17.322Z,8.23
2018-05-16T22:37:50.453Z,8.40
2018-05-16T22:40:23.517Z,8.70
2018-05-16T22:42:50.382Z,7.77
2018-05-16T22:45:19.691Z,7.73
2018-05-16T22:47:47.282Z,8.77
2018-05-16T22:50:14.685Z,6.60
2018-05-16T22:52:42.104Z,8.30
2018-05-16T22:55:09.673Z,7.33
2018-05-16T22:57:37.081Z,7.47
2018-05-16T23:00:04.495Z,7.10
2018-05-16T23:02:31.924Z,7.47
2018-05-16T23:04:59.327Z,6.90
2018-05-16T23:07:26.740Z,8.00
2018-05-16T23:09:54.328Z,7.40
2018-05-16T23:12:21.728Z,7.97
2018-05-16T23:14:49.140Z,7.03
2018-05-16T23:17:16.568Z,8.50
2018-05-16T23:19:43.985Z,8.10
2018-05-16T23:22:14.287Z,8.67
2018-05-16T23:24:41.709Z,8.03
2018-05-16T23:27:09.124Z,7.50
2018-05-16T23:29:36.548Z,8.30
2018-05-16T23:32:03.977Z,7.97
2018-05-16T23:34:31.381Z,7.53
2018-05-16T23:36:58.808Z,6.93
2018-05-16T23:39:26.256Z,6.87
2018-05-16T23:41:53.664Z,7.70
2018-05-16T23:44:21.092Z,7.83
2018-05-16T23:46:48.497Z,8.40
2018-05-16T23:49:15.900Z,8.40
2018-05-16T23:51:43.340Z,9.10
2018-05-16T23:54:10.760Z,7.53
2018-05-16T23:56:38.179Z,7.63
2018-05-16T23:59:05.596Z,8.97
